createdAt,value
2022-12-03T00:01:37.337Z,2.37
2022-12-03T00:21:40.870Z,2.37
2022-12-03T00:26:49.896Z,2.37
2022-12-03T00:31:58.706Z,2.37
2022-12-03T00:37:07.712Z,2.37
2022-12-03T00:42:16.687Z,2.37
2022-12-03T00:47:28.291Z,2.37
2022-12-03T00:52:34.804Z,2.37
2022-12-03T00:57:44.749Z,2.37
2022-12-03T01:02:52.656Z,2.37
2022-12-03T01:08:01.823Z,2.37
2022-12-03T01:13:10.736Z,2.37
2022-12-03T01:18:19.800Z,2.37
2022-12-03T01:23:31.752Z,2.37
2022-12-03T01:38:37.731Z,2.37
2022-12-03T01:43:46.752Z,2.37
2022-12-03T01:48:55.693Z,2.37
2022-12-03T01:54:04.697Z,2.37
2022-12-03T01:59:13.678Z,2.37
2022-12-03T02:14:19.451Z,2.44
2022-12-03T02:19:28.863Z,2.44
2022-12-03T02:24:37.631Z,2.44
2022-12-03T02:29:46.871Z,2.37
2022-12-03T02:34:55.966Z,2.44
2022-12-03T02:40:04.478Z,2.44
2022-12-03T02:45:13.445Z,2.37
2022-12-03T02:50:22.357Z,2.37
2022-12-03T02:55:36.465Z,2.37
2022-12-03T03:10:36.678Z,2.31
2022-12-03T03:15:45.763Z,2.31
2022-12-03T03:20:54.764Z,2.25
2022-12-03T03:26:03.892Z,2.19
2022-12-03T03:31:12.967Z,2.12
2022-12-03T03:36:21.677Z,2.12
2022-12-03T03:41:30.659Z,2
2022-12-03T03:46:39.678Z,1.94
2022-12-03T03:51:48.734Z,1.81
2022-12-03T03:57:00.223Z,1.69
2022-12-03T04:02:06.743Z,1.62
2022-12-03T04:07:15.774Z,1.69
2022-12-03T04:12:24.695Z,1.75
2022-12-03T04:22:42.570Z,1.87
2022-12-03T04:27:54.797Z,1.87
2022-12-03T04:33:03.784Z,1.87
2022-12-03T04:38:12.940Z,1.87
2022-12-03T04:43:21.656Z,1.87
2022-12-03T04:48:30.955Z,1.94
2022-12-03T04:53:45.878Z,1.87
2022-12-03T05:03:57.760Z,1.94
2022-12-03T05:09:06.648Z,1.94
2022-12-03T05:19:13.685Z,1.94
2022-12-03T05:24:22.709Z,1.94
2022-12-03T05:29:31.737Z,1.94
2022-12-03T05:34:40.617Z,1.81
2022-12-03T05:44:47.349Z,1.56
2022-12-03T05:49:56.367Z,1.5
2022-12-03T05:55:08.624Z,1.37
2022-12-03T06:00:17.600Z,1.25
2022-12-03T06:05:26.504Z,1.12
2022-12-03T06:10:35.461Z,1
2022-12-03T06:15:44.462Z,0.81
2022-12-03T06:20:54.340Z,0.69
2022-12-03T06:26:02.404Z,0.56
2022-12-03T06:31:11.263Z,0.5
2022-12-03T06:36:23.146Z,0.37
2022-12-03T06:41:29.141Z,0.25
2022-12-03T06:46:38.156Z,0.19
2022-12-03T06:51:47.132Z,0.13
2022-12-03T07:11:51.047Z,0.13
2022-12-03T07:17:00.136Z,0
2022-12-03T07:22:10.130Z,-0.06
2022-12-03T07:27:18.017Z,-0.13
2022-12-03T07:37:25.197Z,-0.06
2022-12-03T07:42:34.151Z,-0.13
2022-12-03T07:47:43.183Z,-0.06
2022-12-03T07:52:52.229Z,0
2022-12-03T07:58:01.359Z,0.13
2022-12-03T08:03:10.386Z,0.31
2022-12-03T08:08:19.435Z,0.56
2022-12-03T08:13:28.578Z,0.69
2022-12-03T08:18:37.508Z,0.69
2022-12-03T08:23:46.727Z,0.75
2022-12-03T08:28:56.000Z,0.81
2022-12-03T08:34:05.168Z,0.94
2022-12-03T08:44:23.645Z,1.37
2022-12-03T08:49:32.539Z,1.56
2022-12-03T08:54:41.469Z,1.62
2022-12-03T08:59:50.532Z,1.94
2022-12-03T09:05:02.439Z,2.19
2022-12-03T09:15:20.851Z,2.5
2022-12-03T09:20:29.925Z,2.62
2022-12-03T09:25:39.413Z,2.75
2022-12-03T09:30:49.377Z,2.94
2022-12-03T09:35:59.406Z,3.37
2022-12-03T09:41:07.637Z,3.56
2022-12-03T09:46:16.386Z,3.81
2022-12-03T09:51:25.677Z,4.06
2022-12-03T09:56:34.709Z,4.06
2022-12-03T10:01:43.862Z,4.25
2022-12-03T10:06:52.656Z,4.31
2022-12-03T10:12:01.566Z,4.37
2022-12-03T10:32:03.685Z,4.37
2022-12-03T10:37:12.746Z,4.44
2022-12-03T10:42:21.729Z,4.37
2022-12-03T10:47:30.846Z,4.44
2022-12-03T10:52:39.765Z,4.56
2022-12-03T10:57:48.787Z,4.62
2022-12-03T11:02:57.895Z,4.62
2022-12-03T11:08:06.765Z,4.56
2022-12-03T11:13:15.577Z,4.56
2022-12-03T11:18:24.579Z,4.56
2022-12-03T11:23:33.527Z,4.56
2022-12-03T11:28:42.589Z,4.5
2022-12-03T11:33:51.455Z,4.44
2022-12-03T11:39:00.441Z,4.44
2022-12-03T11:44:09.274Z,4.37
2022-12-03T11:49:18.358Z,4.25
2022-12-03T11:54:28.375Z,4.19
2022-12-03T11:59:36.536Z,4.31
2022-12-03T12:04:45.653Z,4.31
2022-12-03T12:09:55.070Z,4.44
2022-12-03T12:15:03.831Z,4.56
2022-12-03T12:20:12.665Z,4.56
2022-12-03T12:25:21.671Z,4.31
2022-12-03T12:30:30.668Z,4.37
2022-12-03T12:35:39.676Z,4.31
2022-12-03T12:40:48.523Z,4.25
2022-12-03T12:45:57.665Z,4.37
2022-12-03T12:51:06.578Z,4.5
2022-12-03T12:56:18.767Z,4.5
2022-12-03T13:01:27.907Z,4.56
2022-12-03T13:06:36.715Z,4.37
2022-12-03T13:11:45.851Z,4.31
2022-12-03T13:16:57.530Z,4.31
2022-12-03T13:22:06.549Z,4.31
2022-12-03T13:27:15.530Z,4.31
2022-12-03T13:32:24.462Z,4.31
2022-12-03T13:37:33.375Z,4.25
2022-12-03T13:42:42.475Z,4.19
2022-12-03T13:47:51.245Z,4.19
2022-12-03T13:53:00.160Z,4.12
2022-12-03T13:58:09.013Z,4.12
2022-12-03T14:03:18.037Z,4.06
2022-12-03T14:13:36.116Z,4.06
2022-12-03T14:18:45.103Z,4.06
2022-12-03T14:23:53.931Z,4
2022-12-03T14:29:08.845Z,3.94
2022-12-03T14:34:15.220Z,3.87
2022-12-03T14:49:38.758Z,3.75
2022-12-03T14:54:47.678Z,3.75
2022-12-03T15:05:05.721Z,3.62
2022-12-03T15:10:14.561Z,3.56
2022-12-03T15:15:23.498Z,3.5
2022-12-03T15:20:32.500Z,3.5
2022-12-03T15:30:50.632Z,3.44
2022-12-03T15:35:59.441Z,3.44
2022-12-03T15:41:08.532Z,3.44
2022-12-03T15:46:17.458Z,3.44
2022-12-03T15:51:50.140Z,3.37
2022-12-03T15:57:21.266Z,3.37
2022-12-03T16:02:32.925Z,3.37
2022-12-03T16:07:42.582Z,3.37
2022-12-03T16:12:55.079Z,3.37
2022-12-03T16:18:06.665Z,3.31
2022-12-03T16:23:19.226Z,3.37
2022-12-03T16:28:27.818Z,3.37
2022-12-03T16:33:38.134Z,3.37
2022-12-03T16:44:01.359Z,3.37
2022-12-03T16:49:10.978Z,3.37
2022-12-03T16:54:20.135Z,3.37
2022-12-03T16:59:30.345Z,3.37
2022-12-03T17:04:39.605Z,3.31
2022-12-03T17:09:48.986Z,3.25
2022-12-03T17:15:00.931Z,3.25
2022-12-03T17:20:10.505Z,3.25
2022-12-03T17:25:21.389Z,3.25
2022-12-03T17:30:31.255Z,3.25
2022-12-03T17:35:40.387Z,3.25
2022-12-03T17:40:49.648Z,3.19
2022-12-03T17:46:01.973Z,3.12
2022-12-03T17:51:12.405Z,3.12
2022-12-03T17:56:22.167Z,3.06
2022-12-03T18:01:33.252Z,3.06
2022-12-03T18:06:42.896Z,3
2022-12-03T18:11:53.676Z,3
2022-12-03T18:17:02.800Z,3
2022-12-03T18:22:12.932Z,3
2022-12-03T18:27:21.867Z,3
2022-12-03T18:32:33.896Z,3
2022-12-03T18:37:44.504Z,3
2022-12-03T18:42:59.606Z,2.94
2022-12-03T18:48:08.969Z,2.94
2022-12-03T18:53:18.092Z,2.94
2022-12-03T18:58:27.376Z,2.94
2022-12-03T19:03:41.186Z,2.87
2022-12-03T19:08:54.967Z,2.87
2022-12-03T19:14:04.430Z,2.87
2022-12-03T19:19:18.884Z,2.87
2022-12-03T19:24:39.690Z,2.81
2022-12-03T19:29:50.409Z,2.81
2022-12-03T19:34:59.279Z,2.81
2022-12-03T19:40:10.379Z,2.81
2022-12-03T19:45:23.921Z,2.75
2022-12-03T19:50:32.617Z,2.75
2022-12-03T19:55:44.662Z,2.75
2022-12-03T20:00:55.130Z,2.69
2022-12-03T20:06:11.502Z,2.69
2022-12-03T20:26:31.972Z,2.69
2022-12-03T20:32:08.727Z,2.69
2022-12-03T20:37:31.857Z,2.69
2022-12-03T20:42:54.486Z,2.62
2022-12-03T20:48:05.922Z,2.69
2022-12-03T20:53:24.575Z,2.69
2022-12-03T20:58:30.621Z,2.62
2022-12-03T21:03:48.359Z,2.62
2022-12-03T21:09:09.252Z,2.62
2022-12-03T21:14:27.428Z,2.62
2022-12-03T21:19:44.711Z,2.56
2022-12-03T21:25:02.886Z,2.56
2022-12-03T21:30:17.898Z,2.62
2022-12-03T21:35:34.552Z,2.62
2022-12-03T21:40:49.235Z,2.56
2022-12-03T21:47:09.031Z,2.5
2022-12-03T21:51:26.434Z,2.5
2022-12-03T21:56:37.810Z,2.44
2022-12-03T22:02:05.760Z,2.37
2022-12-03T22:07:18.820Z,2.37
2022-12-03T22:12:33.500Z,2.31
2022-12-03T22:18:09.781Z,2.25
2022-12-03T22:23:22.264Z,2.25
2022-12-03T22:28:36.356Z,2.19
2022-12-03T22:33:50.443Z,2.19
2022-12-03T22:38:59.859Z,2.19
2022-12-03T22:44:08.869Z,2.19
2022-12-03T22:49:50.462Z,2.19
2022-12-03T22:55:13.262Z,2.25
2022-12-03T23:00:37.416Z,2.25
2022-12-03T23:06:15.152Z,2.19
2022-12-03T23:11:50.652Z,2.25
2022-12-03T23:17:16.450Z,2.25
2022-12-03T23:22:38.875Z,2.25
2022-12-03T23:27:57.766Z,2.19
2022-12-03T23:34:51.883Z,2.19
2022-12-03T23:40:23.633Z,2.19
2022-12-03T23:48:01.225Z,2.12
2022-12-03T23:53:29.014Z,2.12
